createdAt,value
2018-07-22T00:00:10.564Z,9.47
2018-07-22T00:02:39.457Z,8.97
2018-07-22T00:05:06.919Z,9.03
2018-07-22T00:07:34.040Z,10.75
2018-07-22T00:10:01.132Z,14.53
2018-07-22T00:12:28.272Z,8.93
2018-07-22T00:14:55.272Z,11.27
2018-07-22T00:17:22.365Z,10.93
2018-07-22T00:19:49.427Z,7.93
2018-07-22T00:22:17.267Z,7.73
2018-07-22T00:24:44.426Z,8.17
2018-07-22T00:27:11.529Z,7.90
2018-07-22T00:29:40.596Z,8.00
2018-07-22T00:32:10.224Z,9.10
2018-07-22T00:34:40.195Z,9.27
2018-07-22T00:37:07.235Z,9.40
2018-07-22T00:39:39.692Z,8.00
2018-07-22T00:42:06.737Z,8.20
2018-07-22T00:44:33.777Z,11.00
2018-07-22T00:47:00.879Z,8.33
2018-07-22T00:49:28.971Z,9.33
2018-07-22T00:51:57.652Z,7.83
2018-07-22T00:54:24.748Z,6.77
2018-07-22T00:56:51.825Z,7.17
2018-07-22T00:59:18.869Z,7.47
2018-07-22T01:01:45.863Z,8.27
2018-07-22T01:04:12.941Z,17.00
2018-07-22T01:06:40.069Z,9.33
2018-07-22T01:09:07.887Z,9.80
2018-07-22T01:11:34.955Z,8.43
2018-07-22T01:14:06.045Z,10.57
2018-07-22T01:16:41.398Z,8.73
2018-07-22T01:19:11.822Z,12.80
2018-07-22T01:21:42.941Z,10.10
2018-07-22T01:24:10.026Z,12.20
2018-07-22T01:26:37.132Z,11.97
2018-07-22T01:29:04.109Z,8.27
2018-07-22T01:31:31.336Z,7.30
2018-07-22T01:33:58.404Z,7.80
2018-07-22T01:36:30.175Z,8.63
2018-07-22T01:38:57.256Z,8.23
2018-07-22T01:41:24.256Z,7.10
2018-07-22T01:43:54.306Z,6.20
2018-07-22T01:46:24.512Z,6.77
2018-07-22T01:48:51.594Z,6.80
2018-07-22T01:51:22.706Z,6.80
2018-07-22T01:53:50.805Z,6.87
2018-07-22T01:56:17.839Z,6.77
2018-07-22T01:58:46.848Z,6.70
2018-07-22T02:01:20.764Z,11.00
2018-07-22T02:03:47.860Z,8.10
2018-07-22T02:06:15.749Z,7.93
2018-07-22T02:08:42.799Z,7.80
2018-07-22T02:11:10.784Z,8.70
2018-07-22T02:13:38.731Z,8.90
2018-07-22T02:16:12.944Z,7.00
2018-07-22T02:18:43.984Z,9.00
2018-07-22T02:22:33.812Z,7.00
2018-07-22T02:25:01.904Z,7.63
2018-07-22T02:27:35.276Z,8.40
2018-07-22T02:30:02.324Z,9.97
2018-07-22T02:32:30.373Z,8.77
2018-07-22T02:34:58.392Z,8.70
2018-07-22T02:37:26.791Z,7.93
2018-07-22T02:39:58.703Z,6.90
2018-07-22T02:42:26.827Z,7.00
2018-07-22T02:44:53.946Z,6.57
2018-07-22T02:47:20.944Z,6.73
2018-07-22T02:49:48.041Z,7.47
2018-07-22T02:52:16.092Z,7.70
2018-07-22T02:54:45.928Z,7.90
2018-07-22T02:57:13.767Z,7.20
2018-07-22T02:59:41.876Z,6.17
2018-07-22T03:02:20.534Z,6.90
2018-07-22T03:04:53.036Z,6.83
2018-07-22T03:07:26.416Z,10.48
2018-07-22T03:09:53.675Z,7.90
2018-07-22T03:12:20.786Z,8.68
2018-07-22T03:14:47.875Z,7.90
2018-07-22T03:17:14.916Z,7.40
2018-07-22T03:19:42.000Z,7.63
2018-07-22T03:22:09.077Z,7.27
2018-07-22T03:24:37.099Z,13.37
2018-07-22T03:27:04.389Z,6.70
2018-07-22T03:29:31.400Z,6.60
2018-07-22T03:31:58.564Z,7.20
2018-07-22T03:34:25.676Z,6.73
2018-07-22T03:36:52.828Z,9.90
2018-07-22T03:39:28.028Z,7.20
2018-07-22T03:41:58.857Z,8.88
2018-07-22T03:44:25.982Z,9.45
2018-07-22T03:46:53.863Z,9.45
2018-07-22T03:49:23.968Z,9.90
2018-07-22T03:51:51.064Z,9.07
2018-07-22T03:54:18.920Z,8.90
2018-07-22T03:56:46.951Z,8.90
2018-07-22T03:59:14.013Z,8.43
2018-07-22T04:01:44.880Z,8.73
2018-07-22T04:04:11.932Z,7.70
2018-07-22T04:06:39.024Z,7.50
2018-07-22T04:09:06.892Z,8.20
2018-07-22T04:11:33.983Z,8.25
2018-07-22T04:14:01.170Z,9.00
2018-07-22T04:16:29.885Z,7.90
2018-07-22T04:19:03.148Z,7.53
2018-07-22T04:21:30.882Z,14.20
2018-07-22T04:24:04.127Z,9.80
2018-07-22T04:26:31.788Z,7.10
2018-07-22T04:29:06.561Z,10.20
2018-07-22T04:31:35.256Z,11.13
2018-07-22T04:34:02.367Z,9.73
2018-07-22T04:36:29.431Z,11.80
2018-07-22T04:38:56.556Z,9.30
2018-07-22T04:41:23.649Z,10.40
2018-07-22T04:43:50.849Z,10.10
2018-07-22T04:46:18.007Z,12.20
2018-07-22T04:48:46.309Z,10.60
2018-07-22T04:51:13.423Z,8.93
2018-07-22T04:53:40.528Z,7.57
2018-07-22T04:56:07.520Z,7.50
2018-07-22T04:58:36.345Z,8.20
2018-07-22T05:01:03.403Z,7.80
2018-07-22T05:03:30.392Z,8.53
2018-07-22T05:05:57.476Z,7.80
2018-07-22T05:08:27.344Z,8.07
2018-07-22T05:10:54.401Z,8.25
2018-07-22T05:13:21.461Z,7.73
2018-07-22T05:15:48.537Z,8.87
2018-07-22T05:18:20.307Z,8.33
2018-07-22T05:20:47.379Z,8.10
2018-07-22T05:23:16.504Z,8.33
2018-07-22T05:25:43.528Z,14.23
2018-07-22T05:28:13.950Z,8.80
2018-07-22T05:30:49.288Z,7.50
2018-07-22T05:33:17.896Z,8.30
2018-07-22T05:35:45.952Z,10.03
2018-07-22T05:38:14.910Z,8.10
2018-07-22T05:40:43.011Z,7.20
2018-07-22T05:43:10.233Z,9.50
2018-07-22T05:45:37.856Z,7.40
2018-07-22T05:48:05.341Z,7.73
2018-07-22T05:50:33.495Z,8.83
2018-07-22T05:53:02.425Z,9.10
2018-07-22T05:55:34.970Z,8.07
2018-07-22T05:58:05.108Z,7.60
2018-07-22T06:00:32.259Z,8.83
2018-07-22T06:02:59.356Z,8.30
2018-07-22T06:05:26.569Z,7.93
2018-07-22T06:07:54.698Z,8.87
2018-07-22T06:10:24.932Z,8.23
2018-07-22T06:12:52.939Z,10.07
2018-07-22T06:15:26.187Z,6.90
2018-07-22T06:17:53.322Z,6.53
2018-07-22T06:20:24.940Z,8.30
2018-07-22T06:22:52.915Z,7.03
2018-07-22T06:25:24.643Z,7.63
2018-07-22T06:27:51.716Z,9.15
2018-07-22T06:30:24.816Z,8.50
2018-07-22T06:33:02.165Z,11.30
2018-07-22T06:35:32.240Z,9.90
2018-07-22T06:38:01.029Z,9.73
2018-07-22T06:40:28.128Z,8.90
2018-07-22T06:42:55.933Z,8.93
2018-07-22T06:45:23.036Z,9.07
2018-07-22T06:47:53.630Z,10.00
2018-07-22T06:50:21.068Z,8.73
2018-07-22T06:52:48.975Z,9.80
2018-07-22T06:55:18.088Z,9.78
2018-07-22T06:57:45.165Z,9.73
2018-07-22T07:00:13.995Z,8.95
2018-07-22T07:02:41.073Z,9.33
2018-07-22T07:05:08.274Z,9.13
2018-07-22T07:07:35.268Z,8.07
2018-07-22T07:10:02.445Z,10.03
2018-07-22T07:12:29.491Z,7.43
2018-07-22T07:15:00.428Z,8.07
2018-07-22T07:17:27.532Z,5.77
2018-07-22T07:19:54.675Z,8.68
2018-07-22T07:22:21.780Z,8.48
2018-07-22T07:24:51.084Z,7.20
2018-07-22T07:27:24.519Z,8.57
2018-07-22T07:29:51.561Z,9.77
2018-07-22T07:32:18.658Z,7.87
2018-07-22T07:34:45.712Z,8.13
2018-07-22T07:37:12.707Z,7.00
2018-07-22T07:39:40.792Z,7.00
2018-07-22T07:42:07.816Z,6.93
2018-07-22T07:44:34.923Z,7.23
2018-07-22T07:47:01.983Z,8.67
2018-07-22T07:49:29.085Z,8.90
2018-07-22T07:52:00.269Z,7.40
2018-07-22T07:54:27.447Z,8.80
2018-07-22T07:56:54.669Z,8.57
2018-07-22T07:59:21.881Z,8.90
2018-07-22T08:01:49.094Z,9.30
2018-07-22T08:04:16.244Z,11.70
2018-07-22T08:06:47.048Z,10.27
2018-07-22T08:09:14.370Z,11.70
2018-07-22T08:11:41.995Z,12.07
2018-07-22T08:14:09.013Z,12.60
2018-07-22T08:16:36.526Z,14.10
2018-07-22T08:19:03.930Z,11.77
2018-07-22T08:21:31.071Z,12.10
2018-07-22T08:24:00.089Z,19.03
2018-07-22T08:26:27.088Z,15.40
2018-07-22T08:29:17.503Z,19.17
2018-07-22T08:31:45.507Z,16.30
2018-07-22T08:34:16.353Z,19.55
2018-07-22T08:36:43.480Z,14.40
2018-07-22T08:39:15.243Z,16.23
2018-07-22T08:41:43.331Z,15.40
2018-07-22T08:44:10.974Z,15.43
2018-07-22T08:46:39.406Z,16.37
2018-07-22T08:49:06.573Z,16.30
2018-07-22T08:51:33.627Z,13.77
2018-07-22T08:54:01.245Z,14.70
2018-07-22T08:56:29.412Z,15.63
2018-07-22T08:58:56.700Z,16.73
2018-07-22T09:01:24.496Z,15.00
2018-07-22T09:03:59.478Z,16.80
2018-07-22T09:06:32.924Z,15.67
2018-07-22T09:08:59.969Z,14.60
2018-07-22T09:11:28.004Z,14.90
2018-07-22T09:13:55.669Z,15.90
2018-07-22T09:16:22.746Z,15.77
2018-07-22T09:18:49.752Z,14.57
2018-07-22T09:21:19.919Z,16.37
2018-07-22T09:23:47.616Z,15.90
2018-07-22T09:26:14.705Z,13.00
2018-07-22T09:28:43.864Z,11.33
2018-07-22T09:31:13.556Z,13.25
2018-07-22T09:33:42.597Z,14.90
2018-07-22T09:36:16.984Z,16.93
2018-07-22T09:38:43.882Z,14.33
2018-07-22T09:41:10.940Z,16.47
2018-07-22T09:43:41.881Z,18.40
2018-07-22T09:46:10.620Z,19.57
2018-07-22T09:48:37.716Z,16.43
2018-07-22T09:51:05.612Z,14.17
2018-07-22T09:53:32.700Z,15.50
2018-07-22T09:55:59.813Z,14.00
2018-07-22T09:58:28.923Z,15.00
2018-07-22T10:01:01.170Z,13.20
2018-07-22T10:03:29.059Z,18.07
2018-07-22T10:05:58.096Z,15.27
2018-07-22T10:08:25.320Z,22.87
2018-07-22T10:10:52.439Z,18.40
2018-07-22T10:13:19.436Z,22.57
2018-07-22T10:15:47.200Z,15.50
2018-07-22T10:18:14.396Z,18.42
2018-07-22T10:20:41.449Z,20.02
2018-07-22T10:23:08.746Z,18.67
2018-07-22T10:25:35.782Z,16.77
2018-07-22T10:28:10.076Z,17.80
2018-07-22T10:30:37.075Z,15.13
2018-07-22T10:33:05.276Z,16.23
2018-07-22T10:35:32.336Z,17.65
2018-07-22T10:37:59.432Z,15.93
2018-07-22T10:40:28.140Z,17.37
2018-07-22T10:42:55.250Z,14.70
2018-07-22T10:45:22.332Z,17.60
2018-07-22T10:47:52.527Z,18.55
2018-07-22T10:50:19.622Z,19.63
2018-07-22T10:52:46.676Z,18.50
2018-07-22T10:55:13.770Z,15.97
2018-07-22T10:57:41.568Z,25.40
2018-07-22T11:00:08.612Z,14.60
2018-07-22T11:02:38.995Z,13.00
2018-07-22T11:05:07.294Z,14.20
2018-07-22T11:07:34.579Z,14.77
2018-07-22T11:10:05.173Z,17.67
2018-07-22T11:12:32.309Z,15.83
2018-07-22T11:15:00.417Z,18.70
2018-07-22T11:17:31.628Z,13.90
2018-07-22T11:19:58.659Z,14.50
2018-07-22T11:22:28.926Z,12.33
2018-07-22T11:24:56.163Z,16.70
2018-07-22T11:27:24.192Z,12.68
2018-07-22T11:29:54.188Z,15.70
2018-07-22T11:32:23.308Z,12.30
2018-07-22T11:34:53.367Z,12.70
2018-07-22T11:37:20.492Z,14.90
2018-07-22T11:39:47.612Z,14.07
2018-07-22T11:42:14.679Z,13.10
2018-07-22T11:44:41.738Z,11.87
2018-07-22T11:47:08.848Z,12.33
2018-07-22T11:49:36.008Z,14.50
2018-07-22T11:52:06.696Z,15.50
2018-07-22T11:54:33.748Z,13.00
2018-07-22T11:57:00.800Z,12.30
2018-07-22T11:59:37.635Z,15.40
2018-07-22T12:02:14.760Z,14.13
2018-07-22T12:04:45.156Z,13.40
2018-07-22T12:07:13.240Z,13.73
2018-07-22T12:09:41.392Z,11.53
2018-07-22T12:12:08.738Z,15.70
2018-07-22T12:14:35.741Z,10.50
2018-07-22T12:17:02.784Z,14.10
2018-07-22T12:19:29.846Z,12.90
2018-07-22T12:21:56.927Z,12.23
2018-07-22T12:24:30.376Z,12.43
2018-07-22T12:26:57.492Z,20.53
2018-07-22T12:29:27.584Z,10.33
2018-07-22T12:31:54.703Z,11.50
2018-07-22T12:34:21.736Z,12.83
2018-07-22T12:36:49.726Z,9.77
2018-07-22T12:39:17.820Z,12.93
2018-07-22T12:41:49.544Z,11.37
2018-07-22T12:44:17.102Z,13.08
2018-07-22T12:46:44.187Z,13.10
2018-07-22T12:49:15.116Z,10.10
2018-07-22T12:51:44.260Z,9.80
2018-07-22T12:54:11.318Z,11.90
2018-07-22T12:56:42.088Z,11.23
2018-07-22T12:59:10.146Z,12.90
2018-07-22T13:01:37.977Z,9.70
2018-07-22T13:04:05.323Z,11.33
2018-07-22T13:06:32.417Z,15.50
2018-07-22T13:09:02.488Z,11.50
2018-07-22T13:11:31.561Z,14.50
2018-07-22T13:14:00.220Z,12.87
2018-07-22T13:16:28.328Z,10.57
2018-07-22T13:18:58.419Z,9.47
2018-07-22T13:21:26.468Z,10.87
2018-07-22T13:23:56.526Z,14.43
2018-07-22T13:26:23.764Z,10.50
2018-07-22T13:28:50.829Z,12.50
2018-07-22T13:31:17.972Z,16.40
2018-07-22T13:33:45.085Z,15.07
2018-07-22T13:36:12.119Z,12.93
2018-07-22T13:38:42.187Z,10.43
2018-07-22T13:41:10.306Z,10.93
2018-07-22T13:43:37.340Z,11.10
2018-07-22T13:46:04.448Z,10.00
2018-07-22T13:48:31.500Z,11.43
2018-07-22T13:50:58.670Z,13.03
2018-07-22T13:53:25.732Z,10.57
2018-07-22T13:55:53.836Z,12.50
2018-07-22T13:58:24.033Z,13.85
2018-07-22T14:00:51.628Z,18.73
2018-07-22T14:03:19.757Z,12.63
2018-07-22T14:05:46.917Z,11.93
2018-07-22T14:08:17.404Z,11.00
2018-07-22T14:10:46.959Z,13.27
2018-07-22T14:13:14.153Z,14.13
2018-07-22T14:15:41.411Z,12.73
2018-07-22T14:18:10.292Z,12.43
2018-07-22T14:20:44.693Z,16.80
2018-07-22T14:23:11.726Z,17.80
2018-07-22T14:25:38.900Z,17.80
2018-07-22T14:28:14.050Z,15.27
2018-07-22T14:33:16.800Z,16.10
2018-07-22T14:35:44.745Z,14.10
2018-07-22T14:38:12.700Z,13.17
2018-07-22T14:40:39.800Z,12.43
2018-07-22T14:43:07.132Z,11.10
2018-07-22T14:45:34.240Z,12.50
2018-07-22T14:48:06.860Z,11.37
2018-07-22T14:50:34.672Z,10.37
2018-07-22T14:53:01.782Z,10.83
2018-07-22T14:55:28.857Z,10.93
2018-07-22T14:57:55.919Z,10.13
2018-07-22T15:02:58.684Z,9.40
2018-07-22T15:05:26.911Z,8.80
2018-07-22T15:07:54.756Z,9.73
2018-07-22T15:10:21.839Z,8.63
2018-07-22T15:12:49.068Z,8.30
2018-07-22T15:15:17.744Z,8.10
2018-07-22T15:17:44.792Z,9.83
2018-07-22T15:20:14.851Z,8.87
2018-07-22T15:22:42.034Z,8.63
2018-07-22T15:25:09.119Z,8.60
2018-07-22T15:27:36.784Z,7.43
2018-07-22T15:30:04.372Z,7.77
2018-07-22T15:32:31.451Z,7.27
2018-07-22T15:35:00.560Z,8.10
2018-07-22T15:37:30.772Z,9.80
2018-07-22T15:40:00.879Z,8.50
2018-07-22T15:42:27.964Z,7.17
2018-07-22T15:44:55.661Z,18.53
2018-07-22T15:47:22.744Z,13.20
2018-07-22T15:49:50.180Z,12.70
2018-07-22T15:52:17.416Z,10.53
2018-07-22T15:54:48.443Z,9.00
2018-07-22T15:57:21.159Z,9.40
2018-07-22T15:59:48.316Z,10.40
2018-07-22T16:02:16.391Z,13.33
2018-07-22T16:04:43.474Z,7.83
2018-07-22T16:07:13.660Z,8.60
2018-07-22T16:09:41.092Z,5.77
2018-07-22T16:12:08.190Z,6.10
2018-07-22T16:14:36.281Z,6.83
2018-07-22T16:17:06.414Z,5.97
2018-07-22T16:19:33.543Z,6.07
2018-07-22T16:22:00.677Z,15.03
2018-07-22T16:24:28.833Z,8.37
2018-07-22T16:26:56.028Z,5.07
2018-07-22T16:29:32.688Z,7.83
2018-07-22T16:32:03.830Z,8.33
2018-07-22T16:34:30.895Z,6.07
2018-07-22T16:36:57.928Z,5.60
2018-07-22T16:39:25.040Z,6.53
2018-07-22T16:41:58.777Z,7.50
2018-07-22T16:44:25.863Z,7.30
2018-07-22T16:46:52.981Z,6.30
2018-07-22T16:49:20.180Z,5.20
2018-07-22T16:51:47.323Z,5.03
2018-07-22T16:54:15.400Z,4.63
2018-07-22T16:56:42.648Z,4.57
2018-07-22T16:59:12.971Z,5.70
2018-07-22T17:01:40.080Z,5.57
2018-07-22T17:04:07.104Z,4.60
2018-07-22T17:06:37.220Z,6.60
2018-07-22T17:09:07.572Z,5.92
2018-07-22T17:11:34.727Z,5.17
2018-07-22T17:14:01.846Z,4.72
2018-07-22T17:16:32.795Z,4.70
2018-07-22T17:19:04.425Z,5.53
2018-07-22T17:21:37.749Z,4.40
2018-07-22T17:24:05.340Z,3.93
2018-07-22T17:26:38.664Z,4.90
2018-07-22T17:29:09.436Z,4.37
2018-07-22T17:31:39.644Z,5.27
2018-07-22T17:34:08.295Z,5.40
2018-07-22T17:36:39.004Z,6.00
2018-07-22T17:39:07.964Z,4.67
2018-07-22T17:41:37.595Z,5.27
2018-07-22T17:44:45.937Z,4.80
2018-07-22T17:47:12.974Z,4.80
2018-07-22T17:49:40.083Z,5.33
2018-07-22T17:52:21.332Z,5.37
2018-07-22T17:54:49.295Z,7.60
2018-07-22T17:57:17.534Z,6.13
2018-07-22T17:59:45.064Z,7.87
2018-07-22T18:02:13.966Z,5.50
2018-07-22T18:04:41.919Z,5.33
2018-07-22T18:07:08.984Z,6.57
2018-07-22T18:09:36.156Z,7.57
2018-07-22T18:12:14.131Z,8.53
2018-07-22T18:14:41.147Z,5.97
2018-07-22T18:17:08.296Z,6.83
2018-07-22T18:19:37.403Z,6.23
2018-07-22T18:22:05.533Z,6.20
2018-07-22T18:24:32.684Z,6.10
2018-07-22T18:27:00.333Z,5.70
2018-07-22T18:29:27.499Z,7.93
2018-07-22T18:31:55.620Z,6.30
2018-07-22T18:34:26.680Z,6.27
2018-07-22T18:36:55.375Z,9.43
2018-07-22T18:39:24.330Z,7.93
2018-07-22T18:41:53.228Z,5.30
2018-07-22T18:44:28.269Z,7.40
2018-07-22T18:46:55.431Z,6.27
2018-07-22T18:49:24.255Z,6.63
2018-07-22T18:51:54.568Z,7.07
2018-07-22T18:54:21.771Z,6.43
2018-07-22T18:56:50.432Z,9.97
2018-07-22T18:59:19.621Z,6.53
2018-07-22T19:01:49.971Z,6.63
2018-07-22T19:04:20.172Z,8.60
2018-07-22T19:06:47.398Z,12.20
2018-07-22T19:09:30.509Z,7.13
2018-07-22T19:11:57.674Z,7.27
2018-07-22T19:14:25.456Z,7.20
2018-07-22T19:16:56.506Z,7.17
2018-07-22T19:19:23.868Z,7.10
2018-07-22T19:21:50.988Z,6.80
2018-07-22T19:24:18.150Z,7.70
2018-07-22T19:26:48.336Z,7.87
2018-07-22T19:29:16.515Z,7.83
2018-07-22T19:31:43.588Z,7.00
2018-07-22T19:34:20.266Z,7.50
2018-07-22T19:36:51.353Z,8.80
2018-07-22T19:39:21.574Z,7.23
2018-07-22T19:41:48.719Z,7.80
2018-07-22T19:44:15.776Z,9.67
2018-07-22T19:46:43.583Z,8.23
2018-07-22T19:49:11.630Z,8.97
2018-07-22T19:51:39.519Z,11.90
2018-07-22T19:54:07.408Z,7.90
2018-07-22T19:56:37.957Z,7.30
2018-07-22T19:59:13.519Z,7.07
2018-07-22T20:01:42.321Z,9.20
2018-07-22T20:04:11.244Z,7.73
2018-07-22T20:06:42.608Z,7.20
2018-07-22T20:09:11.896Z,7.10
2018-07-22T20:11:40.820Z,6.93
2018-07-22T20:14:07.958Z,8.40
2018-07-22T20:16:37.141Z,7.27
2018-07-22T20:19:05.037Z,7.60
2018-07-22T20:21:32.529Z,8.20
2018-07-22T20:24:00.695Z,7.40
2018-07-22T20:26:28.619Z,7.77
2018-07-22T20:28:56.527Z,9.33
2018-07-22T20:31:25.571Z,6.93
2018-07-22T20:33:52.700Z,6.57
2018-07-22T20:36:19.880Z,7.17
2018-07-22T20:38:47.952Z,12.20
2018-07-22T20:41:17.062Z,8.18
2018-07-22T20:43:46.060Z,11.20
2018-07-22T20:46:13.216Z,7.27
2018-07-22T20:48:42.088Z,7.97
2018-07-22T20:51:18.367Z,7.93
2018-07-22T20:53:46.087Z,8.00
2018-07-22T20:56:14.070Z,8.37
2018-07-22T20:58:47.011Z,7.57
2018-07-22T21:01:15.036Z,8.17
2018-07-22T21:03:42.201Z,8.90
2018-07-22T21:06:10.084Z,9.90
2018-07-22T21:08:38.063Z,12.47
2018-07-22T21:11:09.615Z,8.57
2018-07-22T21:13:41.524Z,9.63
2018-07-22T21:16:09.571Z,8.80
2018-07-22T21:18:39.813Z,8.37
2018-07-22T21:21:09.864Z,8.83
2018-07-22T21:23:37.512Z,8.53
2018-07-22T21:26:05.617Z,9.63
2018-07-22T21:28:32.774Z,8.97
2018-07-22T21:31:05.971Z,9.30
2018-07-22T21:33:42.848Z,9.97
2018-07-22T21:36:15.984Z,9.40
2018-07-22T21:38:46.102Z,8.23
2018-07-22T21:41:19.532Z,8.03
2018-07-22T21:43:54.764Z,9.13
2018-07-22T21:46:28.096Z,8.10
2018-07-22T21:48:58.204Z,8.50
2018-07-22T21:51:28.373Z,10.27
2018-07-22T21:53:58.580Z,8.60
2018-07-22T21:56:25.742Z,8.70
2018-07-22T21:58:58.882Z,9.80
2018-07-22T22:01:28.967Z,8.67
2018-07-22T22:03:57.064Z,9.37
2018-07-22T22:06:28.756Z,9.10
2018-07-22T22:08:55.871Z,9.37
2018-07-22T22:11:23.168Z,9.10
2018-07-22T22:13:50.260Z,7.77
2018-07-22T22:16:21.152Z,12.43
2018-07-22T22:18:51.287Z,11.20
2018-07-22T22:21:20.130Z,8.80
2018-07-22T22:23:48.093Z,8.70
2018-07-22T22:26:24.763Z,10.73
2018-07-22T22:28:59.148Z,9.27
2018-07-22T22:31:29.337Z,9.10
2018-07-22T22:34:02.685Z,10.73
2018-07-22T22:36:36.000Z,9.40
2018-07-22T22:39:07.254Z,9.43
2018-07-22T22:41:35.113Z,12.90
2018-07-22T22:44:03.079Z,8.03
2018-07-22T22:49:27.503Z,9.77
2018-07-22T22:51:54.724Z,11.93
2018-07-22T22:54:21.788Z,10.73
2018-07-22T22:56:49.949Z,10.20
2018-07-22T22:59:22.105Z,9.90
2018-07-22T23:01:49.488Z,10.37
2018-07-22T23:04:16.825Z,11.38
2018-07-22T23:06:44.089Z,10.30
2018-07-22T23:09:12.456Z,9.50
2018-07-22T23:11:40.184Z,10.80
2018-07-22T23:14:07.932Z,10.57
2018-07-22T23:16:34.980Z,10.00
2018-07-22T23:19:02.501Z,10.27
2018-07-22T23:21:30.859Z,10.53
2018-07-22T23:23:57.956Z,10.70
2018-07-22T23:26:25.068Z,9.60
2018-07-22T23:28:53.259Z,11.40
2018-07-22T23:31:24.325Z,10.17
2018-07-22T23:33:55.391Z,9.47
2018-07-22T23:36:22.464Z,8.97
2018-07-22T23:38:49.519Z,12.40
2018-07-22T23:41:25.214Z,9.80
2018-07-22T23:43:53.039Z,11.33
2018-07-22T23:46:21.036Z,12.00
2018-07-22T23:48:48.106Z,9.97
2018-07-22T23:51:17.177Z,10.33
2018-07-22T23:53:44.209Z,10.33
2018-07-22T23:56:15.695Z,10.40
2018-07-22T23:58:47.775Z,10.80
